createdAt,value
2019-02-19T00:01:23.721Z,24.07
2019-02-19T00:06:29.475Z,17.87
2019-02-19T00:11:35.527Z,25.20
2019-02-19T00:16:43.501Z,26.70
2019-02-19T00:21:50.192Z,21.57
2019-02-19T00:26:57.553Z,17.93
2019-02-19T00:32:05.852Z,16.30
2019-02-19T00:37:11.914Z,11.50
2019-02-19T00:42:20.755Z,12.30
2019-02-19T00:47:26.417Z,22.53
2019-02-19T00:52:34.596Z,20.27
2019-02-19T00:57:44.630Z,22.13
2019-02-19T01:02:53.218Z,16.40
2019-02-19T01:07:59.911Z,15.90
2019-02-19T01:13:08.505Z,14.40
2019-02-19T01:18:17.863Z,15.53
2019-02-19T01:23:23.676Z,15.90
2019-02-19T01:28:35.645Z,14.83
2019-02-19T01:33:41.314Z,15.10
2019-02-19T01:38:47.172Z,15.63
2019-02-19T01:43:52.839Z,13.30
2019-02-19T01:49:07.130Z,13.40
2019-02-19T01:54:13.037Z,11.33
2019-02-19T01:59:18.779Z,13.63
2019-02-19T02:04:31.045Z,18.77
2019-02-19T02:09:36.708Z,9.37
2019-02-19T02:14:45.040Z,9.97
2019-02-19T02:19:52.736Z,10.87
2019-02-19T02:25:03.391Z,15.73
2019-02-19T02:30:12.708Z,18.20
2019-02-19T02:35:20.129Z,13.47
2019-02-19T02:40:26.333Z,11.07
2019-02-19T02:45:35.416Z,10.63
2019-02-19T02:50:45.420Z,9.60
2019-02-19T02:55:51.158Z,13.17
2019-02-19T03:00:57.335Z,14.67
2019-02-19T03:06:26.786Z,11.10
2019-02-19T03:11:35.431Z,10.73
2019-02-19T03:16:43.741Z,15.40
2019-02-19T03:21:49.432Z,10.30
2019-02-19T03:26:54.998Z,13.20
2019-02-19T03:32:01.779Z,14.47
2019-02-19T03:37:10.155Z,11.00
2019-02-19T03:42:16.029Z,14.67
2019-02-19T03:47:21.549Z,9.93
2019-02-19T03:52:31.290Z,14.60
2019-02-19T03:57:39.392Z,12.43
2019-02-19T04:02:52.247Z,11.83
2019-02-19T04:08:08.844Z,12.13
2019-02-19T04:13:15.573Z,18.20
2019-02-19T04:18:21.146Z,13.30
2019-02-19T04:23:26.768Z,11.10
2019-02-19T04:28:32.535Z,10.83
2019-02-19T04:33:40.675Z,19.70
2019-02-19T04:38:47.953Z,15.03
2019-02-19T04:43:53.477Z,13.17
2019-02-19T04:48:59.669Z,12.10
2019-02-19T04:54:05.672Z,10.13
2019-02-19T04:59:11.371Z,10.70
2019-02-19T05:04:19.336Z,12.83
2019-02-19T05:09:26.010Z,13.63
2019-02-19T05:14:34.863Z,9.80
2019-02-19T05:19:40.547Z,16.30
2019-02-19T05:24:48.695Z,21.63
2019-02-19T05:29:57.254Z,10.60
2019-02-19T05:35:10.338Z,8.93
2019-02-19T05:40:16.367Z,8.97
2019-02-19T05:45:24.405Z,8.10
2019-02-19T05:50:32.432Z,9.20
2019-02-19T05:55:40.797Z,9.30
2019-02-19T06:00:50.405Z,8.37
2019-02-19T06:05:56.364Z,9.90
2019-02-19T06:11:10.851Z,7.57
2019-02-19T06:16:21.627Z,7.13
2019-02-19T06:21:27.224Z,8.77
2019-02-19T06:26:34.356Z,8.50
2019-02-19T06:31:40.153Z,16.17
2019-02-19T06:36:46.612Z,10.27
2019-02-19T06:41:52.306Z,8.73
2019-02-19T06:46:58.023Z,8.00
2019-02-19T06:52:05.963Z,8.40
2019-02-19T06:57:11.585Z,9.43
2019-02-19T07:02:36.080Z,7.73
2019-02-19T07:07:43.289Z,7.53
2019-02-19T07:12:49.943Z,7.80
2019-02-19T07:18:00.343Z,9.73
2019-02-19T07:23:07.809Z,9.00
2019-02-19T07:28:13.458Z,6.67
2019-02-19T07:33:20.058Z,10.30
2019-02-19T07:38:27.734Z,9.30
2019-02-19T07:43:36.521Z,10.63
2019-02-19T07:48:42.409Z,9.00
2019-02-19T07:53:52.396Z,10.07
2019-02-19T07:58:59.782Z,10.40
2019-02-19T08:04:12.951Z,7.53
2019-02-19T08:09:18.649Z,14.90
2019-02-19T08:14:34.982Z,9.07
2019-02-19T08:19:43.650Z,9.97
2019-02-19T08:24:49.383Z,8.30
2019-02-19T08:29:54.961Z,10.73
2019-02-19T08:35:02.925Z,11.10
2019-02-19T08:40:11.363Z,11.93
2019-02-19T08:45:17.141Z,12.50
2019-02-19T08:50:33.905Z,8.83
2019-02-19T08:55:44.358Z,15.53
2019-02-19T09:00:53.195Z,12.00
2019-02-19T09:06:17.607Z,14.27
2019-02-19T09:11:33.976Z,11.20
2019-02-19T09:16:40.217Z,11.70
2019-02-19T09:21:46.076Z,13.57
2019-02-19T09:26:54.149Z,15.20
2019-02-19T09:32:05.077Z,12.83
2019-02-19T09:37:10.714Z,10.40
2019-02-19T09:42:20.912Z,10.93
2019-02-19T09:47:32.416Z,10.63
2019-02-19T09:52:40.394Z,12.77
2019-02-19T09:57:47.515Z,13.03
2019-02-19T10:02:54.718Z,12.80
2019-02-19T10:08:00.732Z,11.90
2019-02-19T10:13:14.529Z,11.17
2019-02-19T10:18:24.023Z,10.23
2019-02-19T10:23:32.939Z,10.17
2019-02-19T10:28:40.775Z,10.13
2019-02-19T10:33:50.288Z,11.17
2019-02-19T10:38:55.940Z,9.80
2019-02-19T10:44:01.698Z,7.93
2019-02-19T10:49:15.115Z,11.57
2019-02-19T10:54:25.056Z,8.80
2019-02-19T10:59:32.072Z,9.47
2019-02-19T11:04:42.756Z,9.83
2019-02-19T11:09:50.467Z,10.53
2019-02-19T11:14:57.233Z,10.30
2019-02-19T11:20:06.452Z,8.70
2019-02-19T11:25:18.506Z,11.17
2019-02-19T11:30:50.185Z,9.57
2019-02-19T11:35:57.087Z,11.40
2019-02-19T11:41:07.460Z,10.93
2019-02-19T11:46:20.843Z,12.87
2019-02-19T11:51:28.560Z,16.20
2019-02-19T11:56:43.114Z,11.83
2019-02-19T12:01:52.711Z,14.57
2019-02-19T12:07:02.112Z,13.50
2019-02-19T12:12:10.733Z,16.50
2019-02-19T12:17:21.176Z,16.70
2019-02-19T12:22:31.422Z,18.50
2019-02-19T12:27:46.218Z,18.63
2019-02-19T12:33:03.538Z,21.10
2019-02-19T12:38:05.281Z,16.97
2019-02-19T12:43:15.132Z,20.83
2019-02-19T12:48:24.896Z,20.37
2019-02-19T12:53:30.873Z,20.43
2019-02-19T12:58:37.030Z,16.70
2019-02-19T13:03:46.302Z,17.97
2019-02-19T13:08:55.904Z,22.33
2019-02-19T13:14:12.694Z,18.60
2019-02-19T13:19:27.261Z,19.07
2019-02-19T13:24:38.950Z,20.80
2019-02-19T13:29:50.181Z,22.40
2019-02-19T13:34:57.807Z,18.47
2019-02-19T13:40:08.604Z,22.63
2019-02-19T13:45:14.761Z,28.53
2019-02-19T13:50:21.853Z,22.53
2019-02-19T13:55:34.159Z,23.70
2019-02-19T14:00:52.016Z,20.03
2019-02-19T14:05:55.019Z,25.83
2019-02-19T14:11:00.952Z,19.73
2019-02-19T14:16:15.723Z,14.73
2019-02-19T14:21:47.371Z,19.10
2019-02-19T14:27:32.580Z,17.70
2019-02-19T14:33:01.074Z,18.33
2019-02-19T14:38:34.469Z,17.90
2019-02-19T14:43:58.824Z,16.93
2019-02-19T14:49:36.668Z,15.10
2019-02-19T14:55:06.829Z,13.40
2019-02-19T15:00:30.733Z,14.73
2019-02-19T15:06:13.391Z,15.00
2019-02-19T15:11:38.468Z,11.70
2019-02-19T15:17:08.693Z,9.90
2019-02-19T15:22:24.295Z,8.63
2019-02-19T15:27:54.930Z,7.60
2019-02-19T15:33:21.984Z,7.00
2019-02-19T15:38:46.577Z,5.47
2019-02-19T15:44:18.350Z,6.00
2019-02-19T15:49:47.752Z,8.13
2019-02-19T15:55:21.066Z,9.17
2019-02-19T16:00:47.014Z,5.67
2019-02-19T16:06:18.445Z,7.77
2019-02-19T16:11:44.137Z,7.30
2019-02-19T16:17:26.818Z,6.40
2019-02-19T16:22:59.204Z,5.33
2019-02-19T16:28:43.054Z,8.87
2019-02-19T16:34:09.034Z,8.07
2019-02-19T16:39:30.950Z,9.13
2019-02-19T16:44:51.135Z,8.70
2019-02-19T16:50:17.119Z,10.67
2019-02-19T16:55:44.036Z,7.87
2019-02-19T17:01:04.946Z,12.57
2019-02-19T17:06:37.836Z,11.03
2019-02-19T17:11:56.307Z,9.87
2019-02-19T17:17:27.947Z,10.20
2019-02-19T17:22:50.886Z,13.20
2019-02-19T17:28:30.915Z,11.13
2019-02-19T17:33:56.039Z,11.10
2019-02-19T17:39:30.403Z,11.83
2019-02-19T17:45:05.060Z,10.80
2019-02-19T17:50:28.143Z,13.57
2019-02-19T17:56:07.138Z,15.83
2019-02-19T18:01:48.322Z,12.60
2019-02-19T18:07:13.750Z,14.40
2019-02-19T18:13:09.161Z,16.53
2019-02-19T18:18:41.643Z,13.13
2019-02-19T18:23:49.531Z,15.30
2019-02-19T18:29:05.164Z,14.30
2019-02-19T18:34:11.045Z,12.77
2019-02-19T18:39:20.587Z,15.80
2019-02-19T18:44:26.738Z,13.87
2019-02-19T18:49:38.317Z,15.47
2019-02-19T18:54:46.956Z,14.63
2019-02-19T18:59:55.410Z,17.30
2019-02-19T19:05:05.331Z,18.10
2019-02-19T19:10:14.935Z,12.60
2019-02-19T19:15:38.028Z,15.00
2019-02-19T19:20:50.044Z,17.63
2019-02-19T19:25:58.224Z,15.17
2019-02-19T19:31:07.379Z,17.90
2019-02-19T19:36:14.953Z,18.80
2019-02-19T19:41:28.328Z,18.63
2019-02-19T19:46:34.592Z,11.33
2019-02-19T19:51:43.764Z,16.57
2019-02-19T19:56:57.530Z,13.70
2019-02-19T20:02:10.040Z,13.07
2019-02-19T20:07:16.046Z,13.00
2019-02-19T20:12:32.210Z,13.47
2019-02-19T20:17:43.158Z,14.17
2019-02-19T20:22:53.615Z,13.00
2019-02-19T20:28:08.508Z,11.50
2019-02-19T20:33:15.942Z,14.93
2019-02-19T20:38:33.078Z,18.23
2019-02-19T20:43:41.141Z,15.93
2019-02-19T20:48:53.019Z,13.00
2019-02-19T20:54:07.553Z,15.50
2019-02-19T20:59:19.554Z,21.10
2019-02-19T21:04:27.852Z,15.40
2019-02-19T21:09:43.958Z,17.30
2019-02-19T21:14:52.358Z,16.93
2019-02-19T21:20:01.016Z,13.37
2019-02-19T21:25:13.609Z,16.60
2019-02-19T21:30:24.970Z,17.07
2019-02-19T21:35:36.305Z,12.80
2019-02-19T21:40:42.530Z,17.60
2019-02-19T21:45:54.458Z,14.50
2019-02-19T21:51:01.914Z,13.43
2019-02-19T21:56:07.864Z,17.00
2019-02-19T22:01:17.810Z,16.27
2019-02-19T22:06:27.210Z,15.40
2019-02-19T22:11:35.537Z,20.73
2019-02-19T22:16:49.177Z,15.10
2019-02-19T22:22:06.896Z,15.30
2019-02-19T22:27:15.990Z,22.67
2019-02-19T22:32:22.914Z,19.33
2019-02-19T22:37:28.674Z,17.60
2019-02-19T22:42:36.309Z,20.00
2019-02-19T22:47:53.165Z,16.63
2019-02-19T22:52:53.041Z,14.90
2019-02-19T22:58:01.746Z,17.13
2019-02-19T23:03:10.860Z,16.50
2019-02-19T23:08:17.630Z,20.87
2019-02-19T23:13:25.235Z,19.53
2019-02-19T23:18:32.046Z,15.83
2019-02-19T23:23:37.873Z,19.23
2019-02-19T23:28:46.810Z,17.10
2019-02-19T23:33:52.487Z,15.17
2019-02-19T23:38:58.197Z,19.77
2019-02-19T23:44:07.709Z,15.43
2019-02-19T23:55:57.923Z,17.20
